sensor_id;sensor_type;location;lat;lon;timestamp;P1;durP1;ratioP1;P2;durP2;ratioP2
12048;SDS011;6085;49.452;8.502;2022-11-20T00:01:10;21.77;;;14.35;;
12048;SDS011;6085;49.452;8.502;2022-11-20T00:05:14;22.65;;;13.93;;
12048;SDS011;6085;49.452;8.502;2022-11-20T00:09:18;19.13;;;12.27;;
12048;SDS011;6085;49.452;8.502;2022-11-20T00:13:20;22.63;;;13.60;;
12048;SDS011;6085;49.452;8.502;2022-11-20T00:17:22;22.17;;;13.40;;
12048;SDS011;6085;49.452;8.502;2022-11-20T00:21:25;22.40;;;13.40;;
12048;SDS011;6085;49.452;8.502;2022-11-20T00:25:29;17.90;;;11.52;;
12048;SDS011;6085;49.452;8.502;2022-11-20T00:29:31;18.48;;;11.52;;
12048;SDS011;6085;49.452;8.502;2022-11-20T00:33:32;20.45;;;12.15;;
12048;SDS011;6085;49.452;8.502;2022-11-20T00:37:35;18.35;;;12.07;;
12048;SDS011;6085;49.452;8.502;2022-11-20T00:41:38;17.67;;;11.30;;
12048;SDS011;6085;49.452;8.502;2022-11-20T00:45:40;17.17;;;10.63;;
12048;SDS011;6085;49.452;8.502;2022-11-20T00:49:41;16.38;;;10.98;;
12048;SDS011;6085;49.452;8.502;2022-11-20T00:53:43;17.75;;;10.98;;
12048;SDS011;6085;49.452;8.502;2022-11-20T00:57:47;17.95;;;11.00;;
12048;SDS011;6085;49.452;8.502;2022-11-20T01:01:48;18.95;;;11.57;;
12048;SDS011;6085;49.452;8.502;2022-11-20T01:05:50;19.58;;;11.57;;
12048;SDS011;6085;49.452;8.502;2022-11-20T01:09:52;18.58;;;12.00;;
12048;SDS011;6085;49.452;8.502;2022-11-20T01:13:56;20.25;;;12.77;;
12048;SDS011;6085;49.452;8.502;2022-11-20T01:17:59;20.75;;;12.32;;
12048;SDS011;6085;49.452;8.502;2022-11-20T01:22:01;17.73;;;11.55;;
12048;SDS011;6085;49.452;8.502;2022-11-20T01:26:03;17.33;;;11.13;;
12048;SDS011;6085;49.452;8.502;2022-11-20T01:30:08;16.33;;;11.35;;
12048;SDS011;6085;49.452;8.502;2022-11-20T01:34:12;19.85;;;12.60;;
12048;SDS011;6085;49.452;8.502;2022-11-20T01:38:15;15.60;;;10.02;;
12048;SDS011;6085;49.452;8.502;2022-11-20T01:42:17;17.95;;;11.00;;
12048;SDS011;6085;49.452;8.502;2022-11-20T01:46:38;21.42;;;12.38;;
12048;SDS011;6085;49.452;8.502;2022-11-20T01:50:45;17.85;;;10.90;;
12048;SDS011;6085;49.452;8.502;2022-11-20T01:54:48;20.88;;;11.77;;
12048;SDS011;6085;49.452;8.502;2022-11-20T01:58:53;17.70;;;10.10;;
12048;SDS011;6085;49.452;8.502;2022-11-20T02:03:00;16.50;;;9.95;;
12048;SDS011;6085;49.452;8.502;2022-11-20T02:07:06;19.38;;;11.13;;
12048;SDS011;6085;49.452;8.502;2022-11-20T02:11:09;19.08;;;11.80;;
12048;SDS011;6085;49.452;8.502;2022-11-20T02:15:12;16.95;;;11.00;;
12048;SDS011;6085;49.452;8.502;2022-11-20T02:19:19;16.83;;;10.75;;
12048;SDS011;6085;49.452;8.502;2022-11-20T02:23:26;17.08;;;11.00;;
12048;SDS011;6085;49.452;8.502;2022-11-20T02:27:33;18.38;;;11.60;;
12048;SDS011;6085;49.452;8.502;2022-11-20T02:31:36;14.85;;;10.02;;
12048;SDS011;6085;49.452;8.502;2022-11-20T02:35:40;19.73;;;11.73;;
12048;SDS011;6085;49.452;8.502;2022-11-20T02:39:44;18.45;;;11.13;;
12048;SDS011;6085;49.452;8.502;2022-11-20T02:43:50;19.42;;;11.50;;
12048;SDS011;6085;49.452;8.502;2022-11-20T02:47:51;17.08;;;11.63;;
12048;SDS011;6085;49.452;8.502;2022-11-20T02:51:53;16.42;;;9.95;;
12048;SDS011;6085;49.452;8.502;2022-11-20T02:55:55;18.45;;;10.88;;
12048;SDS011;6085;49.452;8.502;2022-11-20T03:00:00;16.52;;;10.38;;
12048;SDS011;6085;49.452;8.502;2022-11-20T03:04:02;17.75;;;10.50;;
12048;SDS011;6085;49.452;8.502;2022-11-20T03:08:04;18.35;;;10.70;;
12048;SDS011;6085;49.452;8.502;2022-11-20T03:12:06;17.63;;;10.40;;
12048;SDS011;6085;49.452;8.502;2022-11-20T03:16:10;17.30;;;10.48;;
12048;SDS011;6085;49.452;8.502;2022-11-20T03:20:13;17.25;;;10.43;;
12048;SDS011;6085;49.452;8.502;2022-11-20T03:24:15;16.73;;;10.45;;
12048;SDS011;6085;49.452;8.502;2022-11-20T03:28:17;17.75;;;11.00;;
12048;SDS011;6085;49.452;8.502;2022-11-20T03:32:20;16.50;;;10.48;;
12048;SDS011;6085;49.452;8.502;2022-11-20T03:36:22;20.70;;;11.75;;
12048;SDS011;6085;49.452;8.502;2022-11-20T03:40:24;20.00;;;12.05;;
12048;SDS011;6085;49.452;8.502;2022-11-20T03:44:26;22.00;;;11.70;;
12048;SDS011;6085;49.452;8.502;2022-11-20T03:48:29;17.40;;;10.57;;
12048;SDS011;6085;49.452;8.502;2022-11-20T03:52:31;16.55;;;9.73;;
12048;SDS011;6085;49.452;8.502;2022-11-20T03:56:33;19.77;;;11.20;;
12048;SDS011;6085;49.452;8.502;2022-11-20T04:00:36;18.65;;;10.25;;
12048;SDS011;6085;49.452;8.502;2022-11-20T04:04:40;17.45;;;9.45;;
12048;SDS011;6085;49.452;8.502;2022-11-20T04:08:42;18.08;;;10.77;;
12048;SDS011;6085;49.452;8.502;2022-11-20T04:12:44;18.23;;;11.07;;
12048;SDS011;6085;49.452;8.502;2022-11-20T04:16:45;18.52;;;10.63;;
12048;SDS011;6085;49.452;8.502;2022-11-20T04:20:49;17.45;;;10.57;;
12048;SDS011;6085;49.452;8.502;2022-11-20T04:24:50;18.52;;;10.90;;
12048;SDS011;6085;49.452;8.502;2022-11-20T04:28:52;20.30;;;11.40;;
12048;SDS011;6085;49.452;8.502;2022-11-20T04:32:54;16.67;;;9.55;;
12048;SDS011;6085;49.452;8.502;2022-11-20T04:36:57;17.13;;;10.35;;
12048;SDS011;6085;49.452;8.502;2022-11-20T04:40:59;17.02;;;9.82;;
12048;SDS011;6085;49.452;8.502;2022-11-20T04:45:02;21.70;;;10.52;;
12048;SDS011;6085;49.452;8.502;2022-11-20T04:49:04;16.42;;;10.40;;
12048;SDS011;6085;49.452;8.502;2022-11-20T04:53:08;16.45;;;10.10;;
12048;SDS011;6085;49.452;8.502;2022-11-20T04:57:10;17.27;;;10.45;;
12048;SDS011;6085;49.452;8.502;2022-11-20T05:01:14;15.20;;;9.05;;
12048;SDS011;6085;49.452;8.502;2022-11-20T05:05:17;13.55;;;8.95;;
12048;SDS011;6085;49.452;8.502;2022-11-20T05:09:20;13.98;;;8.88;;
12048;SDS011;6085;49.452;8.502;2022-11-20T05:13:22;13.73;;;9.10;;
12048;SDS011;6085;49.452;8.502;2022-11-20T05:17:24;15.70;;;9.30;;
12048;SDS011;6085;49.452;8.502;2022-11-20T05:21:26;14.68;;;9.18;;
12048;SDS011;6085;49.452;8.502;2022-11-20T05:25:29;15.57;;;9.18;;
12048;SDS011;6085;49.452;8.502;2022-11-20T05:29:31;14.82;;;8.88;;
12048;SDS011;6085;49.452;8.502;2022-11-20T05:33:33;15.77;;;9.20;;
12048;SDS011;6085;49.452;8.502;2022-11-20T05:37:35;15.05;;;9.43;;
12048;SDS011;6085;49.452;8.502;2022-11-20T05:41:39;12.73;;;8.30;;
12048;SDS011;6085;49.452;8.502;2022-11-20T05:45:40;14.55;;;8.85;;
12048;SDS011;6085;49.452;8.502;2022-11-20T05:49:42;14.95;;;8.82;;
12048;SDS011;6085;49.452;8.502;2022-11-20T05:53:44;15.50;;;9.20;;
12048;SDS011;6085;49.452;8.502;2022-11-20T05:57:48;13.95;;;8.88;;
12048;SDS011;6085;49.452;8.502;2022-11-20T06:01:50;14.15;;;9.10;;
12048;SDS011;6085;49.452;8.502;2022-11-20T06:05:51;15.88;;;9.68;;
12048;SDS011;6085;49.452;8.502;2022-11-20T06:09:54;12.57;;;8.20;;
12048;SDS011;6085;49.452;8.502;2022-11-20T06:13:57;13.70;;;8.73;;
12048;SDS011;6085;49.452;8.502;2022-11-20T06:17:59;13.82;;;8.77;;
12048;SDS011;6085;49.452;8.502;2022-11-20T06:22:00;14.93;;;9.38;;
12048;SDS011;6085;49.452;8.502;2022-11-20T06:26:03;16.00;;;9.98;;
12048;SDS011;6085;49.452;8.502;2022-11-20T06:30:08;14.23;;;9.75;;
12048;SDS011;6085;49.452;8.502;2022-11-20T06:34:11;13.90;;;8.77;;
12048;SDS011;6085;49.452;8.502;2022-11-20T06:38:12;15.27;;;9.38;;
12048;SDS011;6085;49.452;8.502;2022-11-20T06:42:14;17.33;;;9.73;;
12048;SDS011;6085;49.452;8.502;2022-11-20T06:46:18;17.17;;;10.02;;
12048;SDS011;6085;49.452;8.502;2022-11-20T06:50:20;17.80;;;10.30;;
12048;SDS011;6085;49.452;8.502;2022-11-20T06:54:22;15.55;;;9.90;;
12048;SDS011;6085;49.452;8.502;2022-11-20T06:58:26;20.52;;;10.80;;
12048;SDS011;6085;49.452;8.502;2022-11-20T07:02:30;17.27;;;10.35;;
12048;SDS011;6085;49.452;8.502;2022-11-20T07:06:32;15.68;;;9.60;;
12048;SDS011;6085;49.452;8.502;2022-11-20T07:10:33;15.07;;;9.68;;
12048;SDS011;6085;49.452;8.502;2022-11-20T07:14:35;17.40;;;10.52;;
12048;SDS011;6085;49.452;8.502;2022-11-20T07:18:39;15.35;;;9.43;;
12048;SDS011;6085;49.452;8.502;2022-11-20T07:22:41;15.27;;;9.82;;
12048;SDS011;6085;49.452;8.502;2022-11-20T07:26:45;14.27;;;9.13;;
12048;SDS011;6085;49.452;8.502;2022-11-20T07:30:50;15.95;;;10.25;;
12048;SDS011;6085;49.452;8.502;2022-11-20T07:34:54;15.70;;;10.50;;
12048;SDS011;6085;49.452;8.502;2022-11-20T07:38:56;17.13;;;10.02;;
12048;SDS011;6085;49.452;8.502;2022-11-20T07:42:57;16.20;;;9.85;;
12048;SDS011;6085;49.452;8.502;2022-11-20T07:46:59;13.80;;;9.07;;
12048;SDS011;6085;49.452;8.502;2022-11-20T07:51:02;14.70;;;8.60;;
12048;SDS011;6085;49.452;8.502;2022-11-20T07:55:05;14.00;;;9.32;;
12048;SDS011;6085;49.452;8.502;2022-11-20T07:59:07;14.68;;;9.18;;
12048;SDS011;6085;49.452;8.502;2022-11-20T08:03:12;14.20;;;9.57;;
12048;SDS011;6085;49.452;8.502;2022-11-20T08:07:16;15.82;;;9.13;;
12048;SDS011;6085;49.452;8.502;2022-11-20T08:11:18;16.88;;;10.02;;
12048;SDS011;6085;49.452;8.502;2022-11-20T08:15:38;13.63;;;9.20;;
12048;SDS011;6085;49.452;8.502;2022-11-20T08:19:40;21.90;;;11.40;;
12048;SDS011;6085;49.452;8.502;2022-11-20T08:23:44;19.77;;;11.90;;
12048;SDS011;6085;49.452;8.502;2022-11-20T08:27:45;17.65;;;11.35;;
12048;SDS011;6085;49.452;8.502;2022-11-20T08:31:47;20.50;;;13.20;;
12048;SDS011;6085;49.452;8.502;2022-11-20T08:35:49;22.30;;;12.82;;
12048;SDS011;6085;49.452;8.502;2022-11-20T08:39:52;21.08;;;12.73;;
12048;SDS011;6085;49.452;8.502;2022-11-20T08:43:57;19.02;;;12.10;;
12048;SDS011;6085;49.452;8.502;2022-11-20T08:48:01;22.58;;;12.60;;
12048;SDS011;6085;49.452;8.502;2022-11-20T08:52:03;18.08;;;11.75;;
12048;SDS011;6085;49.452;8.502;2022-11-20T08:56:07;21.25;;;12.18;;
12048;SDS011;6085;49.452;8.502;2022-11-20T09:00:09;20.02;;;12.70;;
12048;SDS011;6085;49.452;8.502;2022-11-20T09:04:12;22.65;;;13.55;;
12048;SDS011;6085;49.452;8.502;2022-11-20T09:08:14;25.52;;;14.00;;
12048;SDS011;6085;49.452;8.502;2022-11-20T09:12:17;22.08;;;13.80;;
12048;SDS011;6085;49.452;8.502;2022-11-20T09:16:19;21.63;;;13.95;;
12048;SDS011;6085;49.452;8.502;2022-11-20T09:20:21;25.42;;;14.07;;
12048;SDS011;6085;49.452;8.502;2022-11-20T09:24:23;19.60;;;12.35;;
12048;SDS011;6085;49.452;8.502;2022-11-20T09:28:26;18.75;;;12.75;;
12048;SDS011;6085;49.452;8.502;2022-11-20T09:32:28;19.50;;;11.98;;
12048;SDS011;6085;49.452;8.502;2022-11-20T09:36:30;22.10;;;13.65;;
12048;SDS011;6085;49.452;8.502;2022-11-20T09:40:32;16.90;;;12.02;;
12048;SDS011;6085;49.452;8.502;2022-11-20T09:44:45;21.65;;;14.57;;
12048;SDS011;6085;49.452;8.502;2022-11-20T09:48:58;21.20;;;13.98;;
12048;SDS011;6085;49.452;8.502;2022-11-20T09:53:19;20.58;;;13.63;;
12048;SDS011;6085;49.452;8.502;2022-11-20T09:57:30;23.55;;;14.60;;
12048;SDS011;6085;49.452;8.502;2022-11-20T10:01:38;21.33;;;14.00;;
12048;SDS011;6085;49.452;8.502;2022-11-20T10:05:41;21.70;;;14.00;;
12048;SDS011;6085;49.452;8.502;2022-11-20T10:09:49;24.10;;;15.23;;
12048;SDS011;6085;49.452;8.502;2022-11-20T10:13:56;24.35;;;14.95;;
12048;SDS011;6085;49.452;8.502;2022-11-20T10:18:11;22.20;;;13.93;;
12048;SDS011;6085;49.452;8.502;2022-11-20T10:22:27;24.38;;;14.68;;
12048;SDS011;6085;49.452;8.502;2022-11-20T10:26:42;21.25;;;13.73;;
12048;SDS011;6085;49.452;8.502;2022-11-20T10:30:55;22.95;;;15.13;;
12048;SDS011;6085;49.452;8.502;2022-11-20T10:35:03;23.65;;;14.65;;
12048;SDS011;6085;49.452;8.502;2022-11-20T10:39:14;26.67;;;15.25;;
12048;SDS011;6085;49.452;8.502;2022-11-20T10:43:21;23.50;;;14.68;;
12048;SDS011;6085;49.452;8.502;2022-11-20T10:47:30;25.27;;;15.15;;
12048;SDS011;6085;49.452;8.502;2022-11-20T10:51:35;29.52;;;16.42;;
12048;SDS011;6085;49.452;8.502;2022-11-20T10:55:42;27.50;;;16.90;;
12048;SDS011;6085;49.452;8.502;2022-11-20T11:00:00;26.08;;;15.88;;
12048;SDS011;6085;49.452;8.502;2022-11-20T11:04:07;24.52;;;15.85;;
12048;SDS011;6085;49.452;8.502;2022-11-20T11:08:26;25.42;;;15.25;;
12048;SDS011;6085;49.452;8.502;2022-11-20T11:12:33;25.67;;;15.43;;
12048;SDS011;6085;49.452;8.502;2022-11-20T11:16:35;25.50;;;16.45;;
12048;SDS011;6085;49.452;8.502;2022-11-20T11:20:49;29.27;;;17.27;;
12048;SDS011;6085;49.452;8.502;2022-11-20T11:24:53;26.90;;;16.83;;
12048;SDS011;6085;49.452;8.502;2022-11-20T11:28:55;23.33;;;14.90;;
12048;SDS011;6085;49.452;8.502;2022-11-20T11:33:05;15.02;;;10.70;;
12048;SDS011;6085;49.452;8.502;2022-11-20T11:37:11;14.30;;;10.70;;
12048;SDS011;6085;49.452;8.502;2022-11-20T11:41:20;15.93;;;11.35;;
12048;SDS011;6085;49.452;8.502;2022-11-20T11:45:24;13.60;;;10.30;;
12048;SDS011;6085;49.452;8.502;2022-11-20T11:49:27;11.38;;;8.98;;
12048;SDS011;6085;49.452;8.502;2022-11-20T11:53:29;11.05;;;8.32;;
12048;SDS011;6085;49.452;8.502;2022-11-20T11:57:37;9.98;;;7.65;;
12048;SDS011;6085;49.452;8.502;2022-11-20T12:01:47;10.27;;;7.18;;
12048;SDS011;6085;49.452;8.502;2022-11-20T12:05:55;8.88;;;6.97;;
12048;SDS011;6085;49.452;8.502;2022-11-20T12:09:59;7.32;;;6.63;;
12048;SDS011;6085;49.452;8.502;2022-11-20T12:14:04;6.97;;;5.90;;
12048;SDS011;6085;49.452;8.502;2022-11-20T12:18:15;8.60;;;6.35;;
12048;SDS011;6085;49.452;8.502;2022-11-20T12:22:21;7.00;;;5.60;;
12048;SDS011;6085;49.452;8.502;2022-11-20T12:26:40;7.60;;;5.32;;
12048;SDS011;6085;49.452;8.502;2022-11-20T12:30:58;6.30;;;5.20;;
12048;SDS011;6085;49.452;8.502;2022-11-20T12:35:16;4.97;;;3.50;;
12048;SDS011;6085;49.452;8.502;2022-11-20T12:39:33;4.28;;;2.67;;
12048;SDS011;6085;49.452;8.502;2022-11-20T12:43:37;3.83;;;2.80;;
12048;SDS011;6085;49.452;8.502;2022-11-20T12:48:17;3.85;;;2.42;;
12048;SDS011;6085;49.452;8.502;2022-11-20T12:52:43;2.90;;;2.55;;
12048;SDS011;6085;49.452;8.502;2022-11-20T12:56:50;3.63;;;2.05;;
12048;SDS011;6085;49.452;8.502;2022-11-20T13:01:00;2.30;;;1.80;;
12048;SDS011;6085;49.452;8.502;2022-11-20T13:05:16;2.72;;;2.03;;
12048;SDS011;6085;49.452;8.502;2022-11-20T13:09:21;3.10;;;2.17;;
12048;SDS011;6085;49.452;8.502;2022-11-20T13:13:26;2.75;;;2.40;;
12048;SDS011;6085;49.452;8.502;2022-11-20T13:17:36;4.40;;;2.08;;
12048;SDS011;6085;49.452;8.502;2022-11-20T13:21:43;3.42;;;1.77;;
12048;SDS011;6085;49.452;8.502;2022-11-20T13:25:46;3.30;;;2.20;;
12048;SDS011;6085;49.452;8.502;2022-11-20T13:29:59;2.42;;;1.80;;
12048;SDS011;6085;49.452;8.502;2022-11-20T13:34:04;2.85;;;1.65;;
12048;SDS011;6085;49.452;8.502;2022-11-20T13:38:09;2.88;;;1.88;;
12048;SDS011;6085;49.452;8.502;2022-11-20T13:42:20;4.38;;;1.95;;
12048;SDS011;6085;49.452;8.502;2022-11-20T13:46:34;2.17;;;1.30;;
12048;SDS011;6085;49.452;8.502;2022-11-20T13:50:45;5.63;;;2.20;;
12048;SDS011;6085;49.452;8.502;2022-11-20T13:55:02;2.38;;;2.10;;
12048;SDS011;6085;49.452;8.502;2022-11-20T13:59:24;1.67;;;1.38;;
12048;SDS011;6085;49.452;8.502;2022-11-20T14:03:41;2.80;;;1.30;;
12048;SDS011;6085;49.452;8.502;2022-11-20T14:07:43;1.27;;;1.10;;
12048;SDS011;6085;49.452;8.502;2022-11-20T14:11:47;2.53;;;1.38;;
12048;SDS011;6085;49.452;8.502;2022-11-20T14:15:55;2.25;;;1.20;;
12048;SDS011;6085;49.452;8.502;2022-11-20T14:19:58;2.60;;;1.15;;
12048;SDS011;6085;49.452;8.502;2022-11-20T14:24:03;2.90;;;1.20;;
12048;SDS011;6085;49.452;8.502;2022-11-20T14:28:10;2.08;;;1.20;;
12048;SDS011;6085;49.452;8.502;2022-11-20T14:32:22;3.42;;;1.05;;
12048;SDS011;6085;49.452;8.502;2022-11-20T14:36:29;1.70;;;0.93;;
12048;SDS011;6085;49.452;8.502;2022-11-20T14:40:32;1.45;;;1.00;;
12048;SDS011;6085;49.452;8.502;2022-11-20T14:44:37;3.97;;;1.70;;
12048;SDS011;6085;49.452;8.502;2022-11-20T14:48:40;4.05;;;1.98;;
12048;SDS011;6085;49.452;8.502;2022-11-20T14:52:49;1.58;;;1.48;;
12048;SDS011;6085;49.452;8.502;2022-11-20T14:56:55;2.13;;;1.55;;
12048;SDS011;6085;49.452;8.502;2022-11-20T15:00:59;3.17;;;1.30;;
12048;SDS011;6085;49.452;8.502;2022-11-20T15:05:03;4.63;;;4.13;;
12048;SDS011;6085;49.452;8.502;2022-11-20T15:09:12;3.08;;;2.88;;
12048;SDS011;6085;49.452;8.502;2022-11-20T15:13:16;2.08;;;1.60;;
12048;SDS011;6085;49.452;8.502;2022-11-20T15:17:25;3.40;;;1.40;;
12048;SDS011;6085;49.452;8.502;2022-11-20T15:21:27;1.60;;;1.25;;
12048;SDS011;6085;49.452;8.502;2022-11-20T15:25:29;2.17;;;1.58;;
12048;SDS011;6085;49.452;8.502;2022-11-20T15:29:31;1.95;;;1.33;;
12048;SDS011;6085;49.452;8.502;2022-11-20T15:33:34;1.75;;;1.10;;
12048;SDS011;6085;49.452;8.502;2022-11-20T15:37:37;1.35;;;1.20;;
12048;SDS011;6085;49.452;8.502;2022-11-20T15:41:39;3.08;;;1.45;;
12048;SDS011;6085;49.452;8.502;2022-11-20T15:45:41;3.42;;;1.83;;
12048;SDS011;6085;49.452;8.502;2022-11-20T15:49:46;2.40;;;1.85;;
12048;SDS011;6085;49.452;8.502;2022-11-20T15:53:48;2.60;;;1.23;;
12048;SDS011;6085;49.452;8.502;2022-11-20T15:57:50;2.50;;;1.40;;
12048;SDS011;6085;49.452;8.502;2022-11-20T16:01:52;2.13;;;1.30;;
12048;SDS011;6085;49.452;8.502;2022-11-20T16:05:55;4.22;;;1.38;;
12048;SDS011;6085;49.452;8.502;2022-11-20T16:09:57;2.45;;;1.70;;
12048;SDS011;6085;49.452;8.502;2022-11-20T16:13:59;3.80;;;1.80;;
12048;SDS011;6085;49.452;8.502;2022-11-20T16:18:18;2.05;;;1.48;;
12048;SDS011;6085;49.452;8.502;2022-11-20T16:22:23;2.33;;;1.75;;
12048;SDS011;6085;49.452;8.502;2022-11-20T16:26:25;3.10;;;1.98;;
12048;SDS011;6085;49.452;8.502;2022-11-20T16:30:27;1.45;;;1.25;;
12048;SDS011;6085;49.452;8.502;2022-11-20T16:34:29;3.63;;;1.70;;
12048;SDS011;6085;49.452;8.502;2022-11-20T16:42:36;1.60;;;1.27;;
12048;SDS011;6085;49.452;8.502;2022-11-20T16:46:38;2.65;;;1.77;;
12048;SDS011;6085;49.452;8.502;2022-11-20T16:50:47;2.33;;;1.98;;
12048;SDS011;6085;49.452;8.502;2022-11-20T16:54:51;3.63;;;1.40;;
12048;SDS011;6085;49.452;8.502;2022-11-20T16:58:54;2.95;;;1.80;;
12048;SDS011;6085;49.452;8.502;2022-11-20T17:02:58;3.13;;;1.60;;
12048;SDS011;6085;49.452;8.502;2022-11-20T17:07:00;3.42;;;1.67;;
12048;SDS011;6085;49.452;8.502;2022-11-20T17:11:05;3.15;;;1.80;;
12048;SDS011;6085;49.452;8.502;2022-11-20T17:15:07;4.10;;;1.55;;
12048;SDS011;6085;49.452;8.502;2022-11-20T17:19:10;4.20;;;1.42;;
12048;SDS011;6085;49.452;8.502;2022-11-20T17:23:12;2.53;;;1.60;;
12048;SDS011;6085;49.452;8.502;2022-11-20T17:27:15;3.85;;;1.52;;
12048;SDS011;6085;49.452;8.502;2022-11-20T17:31:17;2.20;;;1.45;;
12048;SDS011;6085;49.452;8.502;2022-11-20T17:35:18;2.33;;;1.55;;
12048;SDS011;6085;49.452;8.502;2022-11-20T17:39:20;2.83;;;1.30;;
12048;SDS011;6085;49.452;8.502;2022-11-20T17:43:23;2.13;;;1.67;;
12048;SDS011;6085;49.452;8.502;2022-11-20T17:47:25;2.33;;;1.42;;
12048;SDS011;6085;49.452;8.502;2022-11-20T17:51:27;3.80;;;1.50;;
12048;SDS011;6085;49.452;8.502;2022-11-20T17:55:30;2.72;;;1.45;;
12048;SDS011;6085;49.452;8.502;2022-11-20T17:59:53;1.55;;;1.40;;
12048;SDS011;6085;49.452;8.502;2022-11-20T18:03:56;1.17;;;1.08;;
12048;SDS011;6085;49.452;8.502;2022-11-20T18:07:58;1.52;;;1.42;;
12048;SDS011;6085;49.452;8.502;2022-11-20T18:12:00;2.00;;;1.40;;
12048;SDS011;6085;49.452;8.502;2022-11-20T18:16:06;2.10;;;1.30;;
12048;SDS011;6085;49.452;8.502;2022-11-20T18:20:08;1.40;;;1.30;;
12048;SDS011;6085;49.452;8.502;2022-11-20T18:24:10;3.42;;;1.77;;
12048;SDS011;6085;49.452;8.502;2022-11-20T18:28:12;3.03;;;1.50;;
12048;SDS011;6085;49.452;8.502;2022-11-20T18:32:15;1.92;;;1.52;;
12048;SDS011;6085;49.452;8.502;2022-11-20T18:36:18;3.00;;;1.40;;
12048;SDS011;6085;49.452;8.502;2022-11-20T18:40:22;2.63;;;1.60;;
12048;SDS011;6085;49.452;8.502;2022-11-20T18:44:24;2.35;;;1.35;;
12048;SDS011;6085;49.452;8.502;2022-11-20T18:48:46;3.00;;;1.48;;
12048;SDS011;6085;49.452;8.502;2022-11-20T18:52:48;1.52;;;1.15;;
12048;SDS011;6085;49.452;8.502;2022-11-20T18:56:50;1.58;;;1.10;;
12048;SDS011;6085;49.452;8.502;2022-11-20T19:00:52;3.33;;;1.50;;
12048;SDS011;6085;49.452;8.502;2022-11-20T19:04:55;1.60;;;1.50;;
12048;SDS011;6085;49.452;8.502;2022-11-20T19:08:57;2.35;;;1.50;;
12048;SDS011;6085;49.452;8.502;2022-11-20T19:12:58;2.03;;;1.10;;
12048;SDS011;6085;49.452;8.502;2022-11-20T19:17:00;4.97;;;2.13;;
12048;SDS011;6085;49.452;8.502;2022-11-20T19:21:07;3.75;;;2.00;;
12048;SDS011;6085;49.452;8.502;2022-11-20T19:25:09;2.65;;;1.33;;
12048;SDS011;6085;49.452;8.502;2022-11-20T19:29:11;2.10;;;1.60;;
12048;SDS011;6085;49.452;8.502;2022-11-20T19:33:14;1.88;;;1.55;;
12048;SDS011;6085;49.452;8.502;2022-11-20T19:37:17;1.80;;;1.50;;
12048;SDS011;6085;49.452;8.502;2022-11-20T19:41:20;1.92;;;1.38;;
12048;SDS011;6085;49.452;8.502;2022-11-20T19:45:27;1.85;;;1.63;;
12048;SDS011;6085;49.452;8.502;2022-11-20T19:49:29;1.63;;;1.52;;
12048;SDS011;6085;49.452;8.502;2022-11-20T19:53:33;1.60;;;1.50;;
12048;SDS011;6085;49.452;8.502;2022-11-20T19:57:34;4.13;;;1.60;;
12048;SDS011;6085;49.452;8.502;2022-11-20T20:01:36;1.92;;;1.38;;
12048;SDS011;6085;49.452;8.502;2022-11-20T20:05:38;1.45;;;1.35;;
12048;SDS011;6085;49.452;8.502;2022-11-20T20:09:41;2.47;;;1.60;;
12048;SDS011;6085;49.452;8.502;2022-11-20T20:13:44;1.60;;;1.50;;
12048;SDS011;6085;49.452;8.502;2022-11-20T20:17:46;2.63;;;1.80;;
12048;SDS011;6085;49.452;8.502;2022-11-20T20:21:48;2.42;;;1.50;;
12048;SDS011;6085;49.452;8.502;2022-11-20T20:25:51;1.73;;;1.40;;
12048;SDS011;6085;49.452;8.502;2022-11-20T20:29:53;2.40;;;1.38;;
12048;SDS011;6085;49.452;8.502;2022-11-20T20:33:55;2.17;;;1.23;;
12048;SDS011;6085;49.452;8.502;2022-11-20T20:37:57;1.83;;;1.50;;
12048;SDS011;6085;49.452;8.502;2022-11-20T20:42:00;1.75;;;1.60;;
12048;SDS011;6085;49.452;8.502;2022-11-20T20:46:02;2.38;;;1.52;;
12048;SDS011;6085;49.452;8.502;2022-11-20T20:50:05;1.60;;;1.50;;
12048;SDS011;6085;49.452;8.502;2022-11-20T20:54:08;1.30;;;1.20;;
12048;SDS011;6085;49.452;8.502;2022-11-20T20:58:11;1.90;;;1.67;;
12048;SDS011;6085;49.452;8.502;2022-11-20T21:02:13;1.92;;;1.70;;
12048;SDS011;6085;49.452;8.502;2022-11-20T21:06:15;2.58;;;1.45;;
12048;SDS011;6085;49.452;8.502;2022-11-20T21:10:17;2.30;;;1.60;;
12048;SDS011;6085;49.452;8.502;2022-11-20T21:14:20;2.30;;;2.00;;
12048;SDS011;6085;49.452;8.502;2022-11-20T21:18:22;1.95;;;1.70;;
12048;SDS011;6085;49.452;8.502;2022-11-20T21:22:24;1.88;;;1.77;;
12048;SDS011;6085;49.452;8.502;2022-11-20T21:26:28;2.53;;;1.73;;
12048;SDS011;6085;49.452;8.502;2022-11-20T21:30:34;2.50;;;1.80;;
12048;SDS011;6085;49.452;8.502;2022-11-20T21:34:35;2.08;;;1.85;;
12048;SDS011;6085;49.452;8.502;2022-11-20T21:38:37;2.80;;;2.08;;
12048;SDS011;6085;49.452;8.502;2022-11-20T21:42:40;2.13;;;1.75;;
12048;SDS011;6085;49.452;8.502;2022-11-20T21:46:43;3.75;;;1.70;;
12048;SDS011;6085;49.452;8.502;2022-11-20T21:50:47;1.77;;;1.67;;
12048;SDS011;6085;49.452;8.502;2022-11-20T21:54:49;2.58;;;2.05;;
12048;SDS011;6085;49.452;8.502;2022-11-20T21:58:52;2.15;;;1.95;;
12048;SDS011;6085;49.452;8.502;2022-11-20T22:02:56;4.80;;;2.00;;
12048;SDS011;6085;49.452;8.502;2022-11-20T22:06:57;3.40;;;2.10;;
12048;SDS011;6085;49.452;8.502;2022-11-20T22:11:00;2.05;;;1.95;;
12048;SDS011;6085;49.452;8.502;2022-11-20T22:15:03;3.60;;;2.05;;
12048;SDS011;6085;49.452;8.502;2022-11-20T22:19:07;2.95;;;1.80;;
12048;SDS011;6085;49.452;8.502;2022-11-20T22:23:09;3.20;;;1.92;;
12048;SDS011;6085;49.452;8.502;2022-11-20T22:27:11;2.08;;;1.75;;
12048;SDS011;6085;49.452;8.502;2022-11-20T22:31:13;2.47;;;2.15;;
12048;SDS011;6085;49.452;8.502;2022-11-20T22:35:16;2.92;;;1.90;;
12048;SDS011;6085;49.452;8.502;2022-11-20T22:39:18;2.92;;;1.90;;
12048;SDS011;6085;49.452;8.502;2022-11-20T22:43:21;2.08;;;1.73;;
12048;SDS011;6085;49.452;8.502;2022-11-20T22:47:23;4.05;;;1.67;;
12048;SDS011;6085;49.452;8.502;2022-11-20T22:51:27;1.60;;;1.50;;
12048;SDS011;6085;49.452;8.502;2022-11-20T22:55:31;3.05;;;1.30;;
12048;SDS011;6085;49.452;8.502;2022-11-20T22:59:33;2.83;;;1.65;;
12048;SDS011;6085;49.452;8.502;2022-11-20T23:03:36;2.60;;;1.80;;
12048;SDS011;6085;49.452;8.502;2022-11-20T23:07:40;3.17;;;1.33;;
12048;SDS011;6085;49.452;8.502;2022-11-20T23:11:42;2.08;;;1.70;;
12048;SDS011;6085;49.452;8.502;2022-11-20T23:15:44;4.53;;;1.60;;
12048;SDS011;6085;49.452;8.502;2022-11-20T23:19:46;2.42;;;1.30;;
12048;SDS011;6085;49.452;8.502;2022-11-20T23:23:50;3.67;;;1.38;;
12048;SDS011;6085;49.452;8.502;2022-11-20T23:27:53;2.53;;;1.30;;
12048;SDS011;6085;49.452;8.502;2022-11-20T23:31:55;2.67;;;1.50;;
12048;SDS011;6085;49.452;8.502;2022-11-20T23:35:57;2.45;;;1.52;;
12048;SDS011;6085;49.452;8.502;2022-11-20T23:40:00;4.63;;;1.55;;
12048;SDS011;6085;49.452;8.502;2022-11-20T23:44:02;3.22;;;1.48;;
12048;SDS011;6085;49.452;8.502;2022-11-20T23:48:05;1.75;;;1.30;;
12048;SDS011;6085;49.452;8.502;2022-11-20T23:52:07;3.42;;;1.48;;
12048;SDS011;6085;49.452;8.502;2022-11-20T23:56:10;2.33;;;1.90;;
